createdAt,value
2023-03-19T00:04:11.325Z,21.63
2023-03-19T00:09:13.687Z,21.20
2023-03-19T00:14:14.446Z,18.60
2023-03-19T00:19:15.707Z,20.35
2023-03-19T00:24:17.780Z,22.90
2023-03-19T00:29:18.586Z,20.08
2023-03-19T00:34:21.648Z,29.63
2023-03-19T00:39:24.453Z,21.42
2023-03-19T00:44:25.507Z,17.85
2023-03-19T00:49:26.270Z,20.30
2023-03-19T00:54:28.480Z,22.42
2023-03-19T00:59:31.281Z,23.20
2023-03-19T01:04:32.002Z,23.42
2023-03-19T01:09:35.947Z,20.92
2023-03-19T01:14:36.671Z,21.70
2023-03-19T01:19:37.582Z,24.45
2023-03-19T01:24:39.666Z,23.75
2023-03-19T01:29:40.619Z,23.20
2023-03-19T01:34:58.362Z,28.38
2023-03-19T01:40:00.508Z,23.52
2023-03-19T01:45:03.521Z,30.08
2023-03-19T01:50:25.906Z,26.45
2023-03-19T01:55:43.159Z,26.38
2023-03-19T02:00:56.081Z,19.70
2023-03-19T02:05:58.659Z,24.90
2023-03-19T02:11:02.110Z,23.83
2023-03-19T02:16:04.674Z,23.00
2023-03-19T02:21:09.182Z,22.63
2023-03-19T02:26:13.680Z,23.30
2023-03-19T02:31:16.139Z,27.25
2023-03-19T02:36:20.462Z,26.42
2023-03-19T02:41:22.825Z,22.88
2023-03-19T02:46:23.665Z,28.80
2023-03-19T02:51:24.394Z,21.83
2023-03-19T02:56:26.622Z,27.92
2023-03-19T03:01:27.299Z,25.60
2023-03-19T03:06:28.124Z,24.98
2023-03-19T03:11:30.425Z,21.15
2023-03-19T03:16:31.263Z,23.20
2023-03-19T03:21:34.349Z,30.08
2023-03-19T03:26:38.864Z,24.38
2023-03-19T03:31:39.641Z,25.13
2023-03-19T03:36:40.421Z,22.55
2023-03-19T03:41:42.570Z,27.27
2023-03-19T03:46:44.569Z,22.13
2023-03-19T03:51:45.603Z,24.17
2023-03-19T03:56:47.778Z,23.58
2023-03-19T04:01:48.617Z,24.77
2023-03-19T04:06:49.578Z,23.40
2023-03-19T04:12:02.283Z,25.90
2023-03-19T04:17:03.070Z,24.95
2023-03-19T04:22:04.426Z,23.02
2023-03-19T04:27:08.431Z,22.38
2023-03-19T04:32:10.874Z,19.00
2023-03-19T04:37:12.523Z,25.52
2023-03-19T04:42:21.680Z,19.55
2023-03-19T04:47:28.634Z,25.73
2023-03-19T04:52:33.901Z,24.60
2023-03-19T04:57:37.991Z,19.85
2023-03-19T05:02:38.784Z,22.05
2023-03-19T05:07:39.479Z,22.58
2023-03-19T05:12:42.229Z,23.33
2023-03-19T05:17:44.142Z,21.83
2023-03-19T05:22:49.389Z,19.45
2023-03-19T05:27:53.102Z,25.70
2023-03-19T05:32:57.715Z,24.70
2023-03-19T05:38:08.284Z,22.23
2023-03-19T05:43:12.549Z,21.00
2023-03-19T05:48:13.824Z,23.33
2023-03-19T05:53:18.448Z,20.75
2023-03-19T05:58:32.240Z,20.75
2023-03-19T06:03:33.759Z,23.92
2023-03-19T06:08:39.475Z,22.98
2023-03-19T06:14:16.582Z,21.13
2023-03-19T06:19:27.899Z,23.20
2023-03-19T06:24:30.500Z,18.58
2023-03-19T06:29:32.686Z,25.63
2023-03-19T06:34:45.255Z,22.05
2023-03-19T06:39:46.314Z,22.10
2023-03-19T06:44:48.411Z,23.40
2023-03-19T06:49:49.118Z,18.45
2023-03-19T06:54:49.829Z,20.70
2023-03-19T06:59:51.883Z,25.15
2023-03-19T07:04:53.466Z,22.92
2023-03-19T07:09:54.362Z,16.45
2023-03-19T07:14:57.080Z,18.15
2023-03-19T07:19:57.766Z,19.75
2023-03-19T07:24:58.597Z,18.17
2023-03-19T07:30:00.758Z,18.48
2023-03-19T07:35:01.517Z,18.27
2023-03-19T07:40:02.423Z,19.95
2023-03-19T07:45:05.352Z,17.33
2023-03-19T07:50:07.323Z,23.05
2023-03-19T07:55:09.897Z,18.52
2023-03-19T08:00:13.072Z,17.20
2023-03-19T08:05:22.379Z,22.60
2023-03-19T08:10:23.100Z,21.92
2023-03-19T08:15:23.828Z,15.75
2023-03-19T08:20:25.903Z,17.27
2023-03-19T08:25:27.037Z,18.13
2023-03-19T08:30:27.813Z,14.98
2023-03-19T08:35:30.445Z,20.33
2023-03-19T08:40:31.285Z,19.73
2023-03-19T08:45:32.056Z,15.38
2023-03-19T08:50:34.390Z,16.45
2023-03-19T08:55:35.279Z,20.85
2023-03-19T09:00:37.080Z,17.00
2023-03-19T09:05:39.182Z,18.02
2023-03-19T09:10:40.631Z,18.90
2023-03-19T09:15:41.385Z,18.38
2023-03-19T09:20:43.584Z,20.25
2023-03-19T09:25:44.333Z,19.23
2023-03-19T09:30:47.012Z,17.70
2023-03-19T09:35:52.830Z,15.43
2023-03-19T09:41:07.912Z,17.92
2023-03-19T09:46:15.559Z,17.33
2023-03-19T09:51:21.162Z,19.08
2023-03-19T09:56:21.904Z,18.15
2023-03-19T10:01:27.569Z,19.45
2023-03-19T10:06:33.647Z,18.25
2023-03-19T10:11:44.529Z,16.80
2023-03-19T10:16:49.319Z,20.05
2023-03-19T10:21:57.352Z,14.88
2023-03-19T10:27:01.550Z,18.10
2023-03-19T10:32:12.085Z,17.52
2023-03-19T10:37:20.573Z,18.77
2023-03-19T10:42:40.889Z,19.30
2023-03-19T10:47:44.244Z,18.80
2023-03-19T10:52:51.606Z,20.02
2023-03-19T10:57:57.955Z,22.20
2023-03-19T11:02:59.248Z,22.33
2023-03-19T11:08:03.616Z,17.70
2023-03-19T11:13:06.942Z,19.33
2023-03-19T11:18:16.128Z,18.65
2023-03-19T11:23:18.860Z,27.35
2023-03-19T11:28:23.088Z,19.40
2023-03-19T11:33:43.684Z,20.35
2023-03-19T11:39:03.338Z,19.00
2023-03-19T11:44:08.274Z,20.30
2023-03-19T11:49:35.672Z,15.65
2023-03-19T11:54:48.786Z,17.58
2023-03-19T12:00:01.495Z,19.17
2023-03-19T12:05:15.967Z,20.98
2023-03-19T12:10:30.364Z,17.90
2023-03-19T12:15:39.507Z,18.88
2023-03-19T12:20:54.047Z,17.48
2023-03-19T12:26:06.101Z,17.08
2023-03-19T12:31:33.788Z,18.23
2023-03-19T12:36:40.852Z,17.02
2023-03-19T12:41:46.145Z,20.10
2023-03-19T12:46:54.162Z,14.68
2023-03-19T12:51:58.431Z,16.95
2023-03-19T12:57:04.549Z,18.58
2023-03-19T13:02:17.176Z,16.75
2023-03-19T13:07:23.616Z,19.75
2023-03-19T13:12:28.778Z,20.70
2023-03-19T13:17:38.327Z,15.75
2023-03-19T13:22:40.340Z,20.38
2023-03-19T13:27:42.405Z,17.73
2023-03-19T13:32:48.788Z,18.92
2023-03-19T13:37:58.951Z,22.25
2023-03-19T13:43:01.036Z,18.55
2023-03-19T13:48:25.664Z,19.63
2023-03-19T13:53:40.603Z,17.23
2023-03-19T13:58:52.958Z,15.82
2023-03-19T14:03:56.392Z,19.45
2023-03-19T14:08:57.246Z,20.70
2023-03-19T14:14:04.079Z,15.80
2023-03-19T14:19:12.528Z,22.98
2023-03-19T14:25:03.946Z,19.55
2023-03-19T14:30:00.688Z,13.77
2023-03-19T14:35:05.795Z,22.15
2023-03-19T14:40:13.028Z,19.05
2023-03-19T14:45:45.986Z,20.40
2023-03-19T14:51:18.984Z,17.77
2023-03-19T14:56:22.395Z,19.83
2023-03-19T15:01:27.125Z,20.23
2023-03-19T15:06:34.287Z,18.75
2023-03-19T15:12:21.255Z,18.95
2023-03-19T15:17:27.013Z,19.65
2023-03-19T15:22:31.349Z,18.23
2023-03-19T15:27:32.137Z,19.30
2023-03-19T15:32:52.234Z,20.25
2023-03-19T15:38:00.803Z,20.95
2023-03-19T15:43:03.626Z,19.02
2023-03-19T15:48:10.653Z,17.60
2023-03-19T15:53:16.643Z,20.60
2023-03-19T15:58:22.379Z,14.07
2023-03-19T16:03:38.939Z,6.82
2023-03-19T16:08:48.000Z,5.97
2023-03-19T16:13:58.040Z,5.53
2023-03-19T16:19:00.885Z,9.02
2023-03-19T16:24:04.521Z,5.70
2023-03-19T16:29:17.921Z,3.30
2023-03-19T16:34:38.278Z,6.05
2023-03-19T16:39:55.214Z,5.90
2023-03-19T16:44:56.396Z,4.97
2023-03-19T16:49:58.400Z,4.15
2023-03-19T16:55:00.148Z,5.82
2023-03-19T17:00:00.961Z,8.27
2023-03-19T17:05:03.422Z,5.10
2023-03-19T17:10:04.626Z,5.30
2023-03-19T17:15:06.989Z,6.05
2023-03-19T17:20:15.390Z,4.35
2023-03-19T17:25:19.168Z,3.90
2023-03-19T17:30:20.217Z,5.65
2023-03-19T17:35:23.537Z,7.63
2023-03-19T17:40:27.467Z,6.93
2023-03-19T17:45:30.185Z,3.15
2023-03-19T17:50:33.533Z,5.28
2023-03-19T17:55:34.401Z,4.72
2023-03-19T18:00:35.426Z,3.35
2023-03-19T18:05:37.734Z,3.33
2023-03-19T18:10:38.454Z,3.13
2023-03-19T18:15:41.088Z,5.35
2023-03-19T18:20:43.375Z,6.45
2023-03-19T18:25:44.968Z,7.25
2023-03-19T18:30:46.343Z,4.10
2023-03-19T18:35:48.887Z,8.25
2023-03-19T18:40:50.380Z,3.80
2023-03-19T18:45:54.693Z,3.67
2023-03-19T18:50:57.174Z,7.43
2023-03-19T18:55:58.368Z,5.70
2023-03-19T19:01:01.452Z,8.65
2023-03-19T19:06:03.947Z,5.55
2023-03-19T19:11:07.363Z,5.63
2023-03-19T19:16:11.523Z,5.93
2023-03-19T19:21:13.973Z,5.32
2023-03-19T19:26:21.874Z,7.18
2023-03-19T19:31:25.672Z,13.10
2023-03-19T19:36:28.844Z,9.88
2023-03-19T19:41:29.650Z,6.88
2023-03-19T19:46:32.553Z,7.68
2023-03-19T19:51:34.604Z,9.00
2023-03-19T19:56:35.490Z,6.47
2023-03-19T20:01:40.511Z,9.80
2023-03-19T20:06:42.727Z,6.80
2023-03-19T20:11:43.690Z,8.82
2023-03-19T20:16:44.432Z,5.57
2023-03-19T20:21:46.550Z,7.57
2023-03-19T20:26:47.308Z,9.25
2023-03-19T20:31:48.050Z,9.70
2023-03-19T20:36:50.227Z,9.73
2023-03-19T20:41:51.717Z,9.60
2023-03-19T20:46:52.600Z,9.15
2023-03-19T20:51:54.758Z,9.23
2023-03-19T20:56:56.122Z,10.85
2023-03-19T21:01:57.309Z,15.38
2023-03-19T21:06:59.413Z,10.43
2023-03-19T21:12:00.537Z,13.15
2023-03-19T21:17:01.250Z,14.27
2023-03-19T21:22:03.439Z,12.15
2023-03-19T21:27:04.245Z,12.98
2023-03-19T21:32:11.110Z,13.60
2023-03-19T21:37:13.462Z,14.85
2023-03-19T21:42:18.013Z,11.35
2023-03-19T21:47:21.398Z,15.90
2023-03-19T21:52:23.601Z,14.57
2023-03-19T21:57:24.607Z,14.40
2023-03-19T22:02:47.332Z,14.27
2023-03-19T22:07:49.739Z,17.63
2023-03-19T22:12:51.204Z,15.93
2023-03-19T22:17:52.019Z,17.75
2023-03-19T22:22:55.438Z,20.58
2023-03-19T22:27:56.858Z,17.08
2023-03-19T22:32:59.179Z,22.40
2023-03-19T22:38:01.299Z,17.17
2023-03-19T22:43:02.205Z,22.88
2023-03-19T22:48:03.664Z,17.80
2023-03-19T22:53:20.782Z,21.33
2023-03-19T22:58:21.535Z,16.80
2023-03-19T23:03:25.776Z,25.30
2023-03-19T23:08:28.261Z,20.10
2023-03-19T23:13:28.885Z,21.92
2023-03-19T23:18:31.433Z,24.25
2023-03-19T23:23:33.634Z,20.70
2023-03-19T23:28:35.992Z,24.52
2023-03-19T23:33:37.284Z,27.45
2023-03-19T23:38:39.290Z,24.48
2023-03-19T23:43:41.067Z,23.85
2023-03-19T23:48:42.156Z,25.30
2023-03-19T23:53:44.902Z,24.55
2023-03-19T23:58:47.110Z,25.10
